METAR Data
IDs: Format: Raw Decoded Include TAF

Data at: 1813 UTC 16 Oct 2021

KLFK 161753Z AUTO 03010G16KT 350V060 10SM CLR 22/03 A3030 RMK AO2 SLP256 T02220028 10228 20111 58012 $
KLFK 161653Z AUTO 02010G16KT 10SM CLR 21/04 A3032 RMK AO2 SLP263 T02110039 $
KLFK 161553Z AUTO 05010KT 10SM CLR 20/05 A3033 RMK AO2 SLP269 T02000050 $
KLFK 161453Z AUTO VRB05KT 10SM CLR 19/08 A3033 RMK AO2 SLP268 T01890078 53019 $
KLFK 161353Z AUTO 36006KT 10SM CLR 16/08 A3031 RMK AO2 SLP261 T01560083 $
KLFK 161253Z AUTO 34004KT 10SM CLR 12/08 A3029 RMK AO2 SLP253 T01170078 $
KLFK 161153Z AUTO 34004KT 10SM CLR 12/08 A3027 RMK AO2 SLP248 T01220078 10183 20117 53020 $
KLFK 161053Z AUTO 35003KT 10SM CLR 13/08 A3025 RMK AO2 SLP241 T01280083 $
KLFK 160953Z AUTO 35004KT 10SM CLR 14/08 A3023 RMK AO2 SLP234 T01440083 $
KLFK 160853Z AUTO 35006KT 10SM CLR 15/08 A3021 RMK AO2 SLP227 T01500078 51012 $
KLFK 160753Z AUTO 35006KT 10SM CLR 17/08 A3021 RMK AO2 SLP225 T01670078 $
KLFK 160653Z AUTO 35008KT 10SM CLR 17/08 A3019 RMK AO2 SLP220 T01720078 $
KLFK 160553Z AUTO 36008KT 10SM CLR 18/08 A3018 RMK AO2 SLP215 T01830083 10278 20183 403330183 51031 $
KLFK 160453Z AUTO 35008KT 10SM CLR 19/11 A3017 RMK AO2 SLP211 T01940106 $
KLFK 160353Z AUTO 34012G23KT 10SM CLR 21/12 A3013 RMK AO2 SLP200 T02060117 $
KLFK 160253Z AUTO 34008G19KT 10SM CLR 22/14 A3009 RMK AO2 SLP184 T02170144 51039 $
KLFK 160153Z AUTO 33007G14KT 10SM SCT030 23/17 A3005 RMK AO2 SLP172 T02330167 $
KLFK 160053Z AUTO 33008KT 10SM CLR 26/19 A3000 RMK AO2 SLP156 T02610189 $
KLFK 152353Z AUTO 31009KT 10SM FEW042 28/20 A2997 RMK AO2 SLP144 T02780200 10333 20278 53024 $
KLFK 152253Z AUTO 32011G15KT 10SM FEW041 29/22 A2992 RMK AO2 SLP127 T02940217 $
KLFK 152153Z AUTO 30010KT 10SM SCT120 32/21 A2991 RMK AO2 SLP123 T03170211 $
KLFK 152053Z AUTO 27008KT 10SM FEW044 33/21 A2990 RMK AO2 SLP119 T03280211 56014 $
KLFK 151953Z AUTO 24010G14KT 10SM CLR 33/22 A2990 RMK AO2 SLP121 T03280217 $
KLFK 151853Z AUTO 28009KT 10SM FEW034 32/22 A2992 RMK AO2 SLP128 T03220222 $
KLFK 151753Z AUTO 23010KT 10SM FEW032 31/23 A2994 RMK AO2 SLP133 T03110228 10311 20233 58008 $
KLFK 151710Z AUTO 25004KT 10SM SCT020 SCT055 29/23 A2996 RMK AO2 T02890233 $
KLFK 151653Z AUTO 29007KT 10SM BKN019 BKN028 BKN044 29/24 A2996 RMK AO2 SLP140 T02940239 $
KLFK 151648Z AUTO 23004KT 10SM SCT019 BKN029 BKN050 28/24 A2996 RMK AO2 $
KLFK 151637Z AUTO 21008KT 10SM FEW017 SCT027 BKN050 29/24 A2996 RMK AO2 T02890239
KLFK 151628Z AUTO 22006KT 10SM SCT015 BKN025 28/23 A2997 RMK AO2 T02830233
KLFK 151553Z AUTO 21005KT 10SM BKN011 BKN018 27/24 A2996 RMK AO2 SLP142 T02670239
KLFK 151545Z AUTO VRB06KT 10SM SCT009 SCT013 BKN019 27/24 A2996 RMK AO2 T02670239
KLFK 151529Z AUTO 21006KT 10SM SCT009 BKN030 BKN047 26/24 A2996 RMK AO2 T02610239
KLFK 151453Z AUTO 20006KT 10SM OVC005 25/24 A2996 RMK AO2 CIG 004V009 SLP140 T02500239 53017
KLFK 151353Z AUTO 18007KT 8SM OVC004 24/23 A2994 RMK AO2 SLP133 T02390233
KLFK 151304Z AUTO 20004KT 4SM BR OVC002 23/23 A2992 RMK AO2 T02330228
KLFK 151253Z AUTO 20003KT 2SM BR OVC002 23/23 A2992 RMK AO2 SLP128 T02330228
KLFK 151153Z AUTO 18004KT 1 1/2SM BR OVC002 23/23 A2991 RMK AO2 SLP123 70012 T02330228 10233 20233 53008
KLFK 151150Z AUTO 18004KT 1 3/4SM BR OVC002 23/23 A2991 RMK AO2
KLFK 151053Z AUTO 17005KT 7SM OVC003 23/23 A2989 RMK AO2 SLP119 T02330228
KLFK 151024Z AUTO 16005KT 4SM BR OVC002 23/23 A2989 RMK AO2 T02330228
KLFK 151016Z AUTO 17004KT 2 1/2SM BR OVC002 23/23 A2989 RMK AO2 T02330228
KLFK 150953Z AUTO 14006KT 1 1/4SM BR OVC002 23/23 A2988 RMK AO2 SLP115 T02330228
KLFK 150940Z AUTO 14006KT 2 1/2SM BR OVC002 23/23 A2988 RMK AO2 T02330228
KLFK 150924Z AUTO 15005KT 7SM BKN003 23/23 A2988 RMK AO2 T02330228
KLFK 150853Z AUTO 16005KT 9SM FEW004 SCT018 BKN048 23/23 A2988 RMK AO2 SLP115 T02330228 58003
KLFK 150803Z AUTO 15004KT 10SM FEW004 FEW020 23/23 A2989 RMK AO2 T02330228
KLFK 150753Z AUTO 14004KT 10SM FEW020 FEW029 23/23 A2989 RMK AO2 SLP118 T02330228
KLFK 150737Z AUTO 14005KT 10SM FEW004 FEW019 23/23 A2989 RMK AO2 T02330228
KLFK 150730Z AUTO 15005KT 10SM SCT004 SCT019 BKN027 23/23 A2989 RMK AO2 T02330228
KLFK 150715Z AUTO 14005KT 9SM BKN004 BKN016 BKN026 23/23 A2989 RMK AO2 CIG 003V007 T02330228
KLFK 150707Z AUTO 14005KT 10SM BKN005 BKN016 BKN028 23/23 A2989 RMK AO2 T02330228
KLFK 150653Z AUTO 13003KT 10SM FEW005 SCT017 23/23 A2989 RMK AO2 SLP119 T02330228